Terminal Aerodrome Forecast
Issued by NWS Cleveland, OH

Home | Current Version | Previous Version | Graphics & Text | Print | Product List | Glossary On
Versions: 1 2 3 4 5 6 7 8 9 10 11 12
103
FTUS41 KCLE 212343
TAFTOL
TAF
KTOL 212343Z 2200/2224 03010KT P6SM FEW080 SCT250
     FM220200 VRB04KT P6SM FEW100 SCT250
     FM221100 32008KT P6SM BKN080 OVC120
     FM221600 36012G20KT P6SM BKN035
     FM222200 01010KT P6SM FEW035=

USA.gov is the U.S. government's official web portal to all federal, state and local government web resources and services.